Time;durP1;ratioP1;P1;durP2;ratioP2;P2;SDS_P1;SDS_P2;PMS_P1;PMS_P2;Temp;Humidity;BMP_temperature;BMP_pressure;BME280_temperature;BME280_humidity;BME280_pressure;Samples;Min_cycle;Max_cycle;Signal;HPM_P1;HPM_P2
2022/08/16 00:02:11;;;;;;;;;;;;;;;20.59;84.94;99550.81;4998735;28;1666;-85
2022/08/16 00:04:36;;;;;;;;;;;;;;;20.59;84.75;99556.38;4997686;28;1383;-84
2022/08/16 00:07:02;;;;;;;;;;;;;;;20.54;85.12;99559.47;4994282;28;1942;-85
2022/08/16 00:09:27;;;;;;;;;;;;;;;20.48;85.71;99549.84;4981331;28;1095;-84
2022/08/16 00:11:52;;;;;;;;;;;;;;;20.39;86.05;99549.28;5000201;28;1362;-85
2022/08/16 00:14:21;;;;;;;;;;;;;;;20.46;85.86;99546.63;5013503;28;1416;-85
2022/08/16 00:16:46;;;;;;;;;;;;;;;20.47;85.70;99553.00;4997583;28;1434;-84
2022/08/16 00:19:12;;;;;;;;;;;;;;;20.50;85.77;99547.47;4999099;28;1562;-85
2022/08/16 00:21:38;;;;;;;;;;;;;;;20.50;85.71;99555.03;4999253;28;1703;-84
2022/08/16 00:24:03;;;;;;;;;;;;;;;20.38;86.15;99556.00;4998111;28;1551;-85
2022/08/16 00:26:28;;;;;;;;;;;;;;;20.19;87.12;99550.44;5005048;28;1936;-84
2022/08/16 00:28:53;;;;;;;;;;;;;;;20.17;87.27;99553.59;5005760;28;1778;-84
2022/08/16 00:31:18;;;;;;;;;;;;;;;20.17;87.01;99559.16;5003241;28;1717;-84
2022/08/16 00:33:43;;;;;;;;;;;;;;;20.21;86.93;99557.25;5019464;28;1401;-84
2022/08/16 00:36:09;;;;;;;;;;;;;;;20.19;86.98;99556.81;5004190;28;1535;-84
2022/08/16 00:38:34;;;;;;;;;;;;;;;20.27;86.71;99564.09;5019965;28;1414;-84
2022/08/16 00:41:00;;;;;;;;;;;;;;;20.31;86.80;99559.44;5021058;28;1540;-84
2022/08/16 00:43:27;;;;;;;;;;;;;;;20.29;86.61;99560.97;5003892;28;1611;-84
2022/08/16 00:45:57;;;;;;;;;;;;;;;20.02;87.47;99562.81;5004262;28;1918;-84
2022/08/16 00:48:22;;;;;;;;;;;;;;;20.00;88.14;99556.81;5006151;28;1301;-84
2022/08/16 00:50:47;;;;;;;;;;;;;;;19.95;87.84;99557.94;5005625;28;1754;-84
2022/08/16 00:53:14;;;;;;;;;;;;;;;19.95;88.08;99559.91;5006933;28;1491;-84
2022/08/16 00:55:42;;;;;;;;;;;;;;;20.00;87.57;99560.41;5005428;28;1467;-84
2022/08/16 00:58:08;;;;;;;;;;;;;;;20.04;87.58;99568.81;4993041;28;1637;-82
2022/08/16 01:00:33;;;;;;;;;;;;;;;19.96;87.81;99562.31;5004005;28;1468;-82
2022/08/16 01:03:00;;;;;;;;;;;;;;;20.03;87.78;99562.47;5005060;28;1531;-82
2022/08/16 01:05:26;;;;;;;;;;;;;;;20.03;88.34;99558.88;5017279;28;1934;-82
2022/08/16 01:07:52;;;;;;;;;;;;;;;20.12;88.01;99558.66;5020688;28;1450;-83
2022/08/16 01:10:17;;;;;;;;;;;;;;;20.01;87.93;99553.69;5006114;28;1301;-83
2022/08/16 01:12:42;;;;;;;;;;;;;;;20.05;88.11;99555.75;5003599;28;1486;-83
2022/08/16 01:15:08;;;;;;;;;;;;;;;20.08;88.09;99554.97;5003287;28;1245;-83
2022/08/16 01:17:34;;;;;;;;;;;;;;;20.01;87.97;99563.97;5005009;28;1652;-82
2022/08/16 01:20:01;;;;;;;;;;;;;;;19.90;88.54;99565.75;5000606;28;1519;-83
2022/08/16 01:22:32;;;;;;;;;;;;;;;19.83;88.38;99568.38;5006087;28;1412;-83
2022/08/16 01:25:00;;;;;;;;;;;;;;;19.76;89.26;99560.69;5006175;28;1898;-83
2022/08/16 01:27:29;;;;;;;;;;;;;;;19.83;88.67;99562.81;5006479;28;1254;-83
2022/08/16 01:29:59;;;;;;;;;;;;;;;19.78;88.65;99569.47;5006754;28;1445;-82
2022/08/16 01:32:25;;;;;;;;;;;;;;;19.66;88.84;99566.81;5005552;28;1464;-83
2022/08/16 01:34:51;;;;;;;;;;;;;;;19.75;88.68;99564.63;5005882;28;1543;-83
2022/08/16 01:37:16;;;;;;;;;;;;;;;19.81;88.58;99562.41;5001054;28;1639;-83
2022/08/16 01:39:41;;;;;;;;;;;;;;;19.76;88.91;99565.44;5005908;28;1621;-83
2022/08/16 01:42:08;;;;;;;;;;;;;;;19.75;88.38;99570.19;4997472;28;1568;-83
2022/08/16 01:44:33;;;;;;;;;;;;;;;19.65;89.28;99568.78;5005786;28;1194;-83
2022/08/16 01:46:59;;;;;;;;;;;;;;;19.60;89.33;99580.19;5009670;28;1875;-83
2022/08/16 01:49:27;;;;;;;;;;;;;;;19.62;88.58;99577.06;5009113;28;1722;-83
2022/08/16 01:51:56;;;;;;;;;;;;;;;19.72;88.61;99576.50;5023142;28;1416;-83
2022/08/16 01:54:21;;;;;;;;;;;;;;;19.74;89.07;99582.47;5008399;28;1832;-83
2022/08/16 01:56:46;;;;;;;;;;;;;;;19.69;88.49;99584.75;5008118;28;1622;-83
2022/08/16 01:59:12;;;;;;;;;;;;;;;19.74;88.29;99582.47;5009619;28;1639;-82
2022/08/16 02:01:38;;;;;;;;;;;;;;;19.79;88.68;99593.31;5006675;28;1619;-83
2022/08/16 02:04:03;;;;;;;;;;;;;;;19.83;88.16;99587.81;5004928;28;1573;-83
2022/08/16 02:06:28;;;;;;;;;;;;;;;19.81;87.60;99590.97;5006309;28;1894;-83
2022/08/16 02:08:53;;;;;;;;;;;;;;;19.82;87.99;99586.22;5022586;28;1815;-82
2022/08/16 02:11:19;;;;;;;;;;;;;;;19.85;87.88;99588.25;5009205;28;1528;-83
2022/08/16 02:13:45;;;;;;;;;;;;;;;19.87;87.85;99592.28;5010567;28;1167;-83
2022/08/16 02:16:10;;;;;;;;;;;;;;;19.81;88.22;99590.97;5004866;28;1746;-83
2022/08/16 02:18:35;;;;;;;;;;;;;;;19.79;88.11;99590.53;5008375;28;1547;-83
2022/08/16 02:21:00;;;;;;;;;;;;;;;19.78;88.10;99588.91;5007330;28;1509;-83
2022/08/16 02:23:26;;;;;;;;;;;;;;;19.79;88.34;99598.84;5009037;28;1283;-83
2022/08/16 02:25:51;;;;;;;;;;;;;;;19.87;87.93;99591.47;5005001;28;1942;-83
2022/08/16 02:28:17;;;;;;;;;;;;;;;19.88;87.64;99590.31;5005869;28;1428;-83
2022/08/16 02:30:42;;;;;;;;;;;;;;;19.86;88.02;99595.41;5007812;28;1790;-83
2022/08/16 02:33:07;;;;;;;;;;;;;;;19.88;87.73;99591.13;5020328;28;1630;-82
2022/08/16 02:35:32;;;;;;;;;;;;;;;19.87;86.89;99586.72;5008167;28;1401;-83
2022/08/16 02:37:59;;;;;;;;;;;;;;;19.86;87.35;99590.69;5005999;28;1454;-83
2022/08/16 02:40:24;;;;;;;;;;;;;;;19.89;87.31;99586.38;5002635;28;1475;-84
2022/08/16 02:42:50;;;;;;;;;;;;;;;19.81;87.57;99590.97;5001515;28;1812;-84
2022/08/16 02:45:16;;;;;;;;;;;;;;;19.56;87.37;99579.28;5006112;28;1879;-84
2022/08/16 02:47:41;;;;;;;;;;;;;;;19.45;88.61;99585.75;5006109;28;1055;-83
2022/08/16 02:50:07;;;;;;;;;;;;;;;19.32;88.52;99582.28;5006955;28;1600;-84
2022/08/16 02:52:32;;;;;;;;;;;;;;;19.24;88.09;99583.28;5006905;28;1606;-84
2022/08/16 02:54:57;;;;;;;;;;;;;;;19.17;88.15;99589.47;5019274;28;1511;-85
2022/08/16 02:57:23;;;;;;;;;;;;;;;19.16;88.61;99585.09;5005526;28;1436;-84
2022/08/16 02:59:49;;;;;;;;;;;;;;;19.10;89.22;99586.53;5021288;28;1708;-82
2022/08/16 03:02:14;;;;;;;;;;;;;;;19.11;88.17;99585.38;5021825;28;1771;-83
2022/08/16 03:04:39;;;;;;;;;;;;;;;19.10;88.93;99588.50;5004068;28;1442;-84
2022/08/16 03:07:05;;;;;;;;;;;;;;;19.05;88.98;99580.47;5007498;28;2028;-83
2022/08/16 03:09:30;;;;;;;;;;;;;;;19.04;88.94;99587.19;5007674;28;1253;-82
2022/08/16 03:11:56;;;;;;;;;;;;;;;19.01;88.13;99585.13;5021821;28;1627;-83
2022/08/16 03:14:21;;;;;;;;;;;;;;;18.90;89.11;99590.38;5008890;28;1347;-84
2022/08/16 03:16:46;;;;;;;;;;;;;;;18.87;88.19;99589.16;5009276;28;1594;-83
2022/08/16 03:19:11;;;;;;;;;;;;;;;18.85;88.37;99590.66;5007503;28;1415;-83
2022/08/16 03:21:36;;;;;;;;;;;;;;;19.02;87.99;99590.31;5007947;28;1623;-82
2022/08/16 03:24:02;;;;;;;;;;;;;;;18.94;88.83;99588.53;5008166;28;1481;-83
2022/08/16 03:26:27;;;;;;;;;;;;;;;18.89;87.78;99594.31;5007220;28;1871;-83
2022/08/16 03:28:52;;;;;;;;;;;;;;;18.82;88.95;99592.19;5020177;28;996;-83
2022/08/16 03:31:17;;;;;;;;;;;;;;;18.88;88.99;99587.97;5019442;28;1504;-82
2022/08/16 03:33:42;;;;;;;;;;;;;;;18.77;88.03;99589.69;5008908;28;1532;-82
2022/08/16 03:36:08;;;;;;;;;;;;;;;18.76;89.04;99582.53;5023432;28;1567;-82
2022/08/16 03:38:33;;;;;;;;;;;;;;;18.77;88.46;99586.91;5008749;28;1515;-82
2022/08/16 03:40:59;;;;;;;;;;;;;;;18.73;88.71;99590.75;5004273;28;1488;-83
2022/08/16 03:43:26;;;;;;;;;;;;;;;18.76;88.92;99588.06;5005760;28;1411;-83
2022/08/16 03:45:52;;;;;;;;;;;;;;;18.56;88.64;99586.31;5022884;28;1925;-82
2022/08/16 03:48:17;;;;;;;;;;;;;;;18.58;89.40;99591.53;5009004;28;1280;-83
2022/08/16 03:50:42;;;;;;;;;;;;;;;18.51;88.93;99586.59;5008316;28;1564;-82
2022/08/16 03:53:08;;;;;;;;;;;;;;;18.51;89.85;99589.34;5024252;28;1205;-82
2022/08/16 03:55:33;;;;;;;;;;;;;;;18.40;87.24;99586.28;5024388;28;1505;-83
2022/08/16 03:57:58;;;;;;;;;;;;;;;18.34;87.34;99590.50;5003538;28;1528;-83
2022/08/16 04:00:25;;;;;;;;;;;;;;;18.42;88.11;99586.75;5008100;28;1493;-83
2022/08/16 04:02:51;;;;;;;;;;;;;;;18.28;86.86;99591.91;5007324;28;2056;-82
2022/08/16 04:05:17;;;;;;;;;;;;;;;18.31;88.44;99585.66;5004356;28;1953;-82
2022/08/16 04:07:43;;;;;;;;;;;;;;;18.33;86.97;99597.19;5007181;28;1067;-83
2022/08/16 04:10:09;;;;;;;;;;;;;;;18.37;87.72;99603.63;5007001;28;1706;-82
2022/08/16 04:12:35;;;;;;;;;;;;;;;18.24;88.46;99595.72;5001690;28;1520;-83
2022/08/16 04:15:01;;;;;;;;;;;;;;;18.33;88.24;99599.97;5004073;28;1940;-83
2022/08/16 04:17:26;;;;;;;;;;;;;;;18.23;87.65;99600.47;5005258;28;1507;-83
2022/08/16 04:19:51;;;;;;;;;;;;;;;18.15;87.75;99599.47;5007328;28;1647;-84
2022/08/16 04:22:18;;;;;;;;;;;;;;;18.22;87.63;99600.81;5003756;28;1460;-84
2022/08/16 04:24:43;;;;;;;;;;;;;;;18.10;87.37;99598.91;5020580;28;1683;-84
2022/08/16 04:27:08;;;;;;;;;;;;;;;18.09;87.67;99600.06;5007570;28;1688;-83
2022/08/16 04:29:33;;;;;;;;;;;;;;;18.20;89.00;99601.19;5004355;28;1799;-83
2022/08/16 04:31:59;;;;;;;;;;;;;;;18.23;88.12;99605.19;5001002;28;1486;-84
2022/08/16 04:34:26;;;;;;;;;;;;;;;18.18;86.47;99606.28;5012360;28;1563;-83
2022/08/16 04:36:51;;;;;;;;;;;;;;;18.17;88.06;99607.44;5016470;28;1967;-83
2022/08/16 04:39:16;;;;;;;;;;;;;;;18.04;88.01;99611.38;5001049;28;1607;-82
2022/08/16 04:41:41;;;;;;;;;;;;;;;18.10;88.73;99613.56;5000434;28;1232;-83
2022/08/16 04:44:07;;;;;;;;;;;;;;;17.93;88.93;99615.81;4995086;28;1250;-86
2022/08/16 04:46:32;;;;;;;;;;;;;;;18.14;89.12;99620.00;4992500;28;1409;-87
2022/08/16 04:48:58;;;;;;;;;;;;;;;18.24;87.48;99613.16;4994730;28;932;-85
2022/08/16 04:51:23;;;;;;;;;;;;;;;18.28;89.15;99616.84;5010573;28;1231;-85
2022/08/16 04:53:48;;;;;;;;;;;;;;;18.21;88.68;99615.81;4995416;28;1602;-84
2022/08/16 04:56:14;;;;;;;;;;;;;;;18.15;87.83;99612.50;4994636;28;2049;-85
2022/08/16 04:58:39;;;;;;;;;;;;;;;18.20;87.60;99620.59;4996806;28;1353;-86
2022/08/16 05:01:04;;;;;;;;;;;;;;;18.24;87.30;99624.25;5011870;28;1857;-85
2022/08/16 05:03:30;;;;;;;;;;;;;;;18.24;86.94;99632.56;5013589;28;1358;-85
2022/08/16 05:05:55;;;;;;;;;;;;;;;18.12;88.05;99629.81;5011198;28;1472;-83
2022/08/16 05:08:21;;;;;;;;;;;;;;;18.15;88.95;99627.16;4996224;28;1372;-85
2022/08/16 05:10:46;;;;;;;;;;;;;;;18.08;88.70;99626.97;5010632;28;1536;-85
2022/08/16 05:13:11;;;;;;;;;;;;;;;18.18;89.25;99630.41;4996611;28;1664;-84
2022/08/16 05:15:36;;;;;;;;;;;;;;;18.24;89.20;99634.50;4995364;28;1956;-85
2022/08/16 05:18:02;;;;;;;;;;;;;;;18.29;89.11;99628.75;5000563;28;1493;-85
2022/08/16 05:20:28;;;;;;;;;;;;;;;18.25;89.69;99639.72;5000105;28;1871;-86
2022/08/16 05:22:53;;;;;;;;;;;;;;;18.30;88.53;99644.19;5007100;28;1192;-87
2022/08/16 05:25:18;;;;;;;;;;;;;;;18.34;89.58;99648.69;5020992;28;1667;-85
2022/08/16 05:27:44;;;;;;;;;;;;;;;18.38;88.32;99646.78;5003501;28;1487;-86
2022/08/16 05:30:12;;;;;;;;;;;;;;;18.49;89.65;99656.22;4999243;28;1361;-86
2022/08/16 05:32:37;;;;;;;;;;;;;;;18.54;88.34;99667.03;5004941;28;1401;-87
2022/08/16 05:35:06;;;;;;;;;;;;;;;18.47;88.61;99660.50;4997883;28;2002;-86
2022/08/16 05:37:31;;;;;;;;;;;;;;;18.58;89.62;99669.16;5004487;28;1611;-84
2022/08/16 05:39:56;;;;;;;;;;;;;;;18.70;88.81;99669.09;5001705;28;1555;-84
2022/08/16 05:42:21;;;;;;;;;;;;;;;18.83;89.11;99662.31;5008023;28;1307;-84
2022/08/16 05:44:46;;;;;;;;;;;;;;;18.99;88.97;99659.53;5005579;28;1323;-84
2022/08/16 05:47:12;;;;;;;;;;;;;;;19.08;88.03;99668.50;5007808;28;976;-84
2022/08/16 05:49:37;;;;;;;;;;;;;;;19.18;87.52;99667.97;5007879;28;1051;-84
2022/08/16 05:52:02;;;;;;;;;;;;;;;19.18;86.72;99668.78;5005840;28;1968;-84
2022/08/16 05:54:27;;;;;;;;;;;;;;;19.20;86.56;99672.00;5005965;28;1274;-84
2022/08/16 05:56:53;;;;;;;;;;;;;;;19.33;85.53;99683.00;5004602;28;1955;-85
2022/08/16 05:59:19;;;;;;;;;;;;;;;19.41;85.42;99682.81;5005178;28;1224;-85
2022/08/16 06:01:44;;;;;;;;;;;;;;;19.48;84.41;99673.91;5004896;28;1893;-84
2022/08/16 06:04:10;;;;;;;;;;;;;;;19.51;85.51;99673.16;5005297;28;1032;-84
2022/08/16 06:06:35;;;;;;;;;;;;;;;19.56;85.75;99676.47;5020855;28;1326;-84
2022/08/16 06:09:01;;;;;;;;;;;;;;;19.61;84.60;99678.97;5020552;28;1272;-84
2022/08/16 06:11:26;;;;;;;;;;;;;;;19.66;85.07;99688.97;5019289;28;1898;-85
2022/08/16 06:13:51;;;;;;;;;;;;;;;19.72;85.25;99686.75;5006663;28;1114;-85
2022/08/16 06:16:16;;;;;;;;;;;;;;;19.74;84.23;99693.53;5021360;28;1902;-84
2022/08/16 06:18:43;;;;;;;;;;;;;;;19.76;84.40;99693.19;5004854;28;1304;-84
2022/08/16 06:21:09;;;;;;;;;;;;;;;19.80;82.95;99694.88;5019167;28;2072;-85
2022/08/16 06:23:34;;;;;;;;;;;;;;;19.85;83.20;99694.59;5005418;28;1294;-85
2022/08/16 06:25:59;;;;;;;;;;;;;;;19.90;83.89;99699.88;5007306;28;790;-84
2022/08/16 06:28:24;;;;;;;;;;;;;;;19.85;84.13;99697.38;5023229;28;964;-85
2022/08/16 06:30:50;;;;;;;;;;;;;;;19.79;83.64;99681.34;5022335;28;1906;-84
2022/08/16 06:33:16;;;;;;;;;;;;;;;19.82;83.24;99675.88;5006911;28;1907;-85
2022/08/16 06:35:41;;;;;;;;;;;;;;;19.81;84.29;99679.03;5023476;28;1953;-84
2022/08/16 06:38:06;;;;;;;;;;;;;;;19.76;83.69;99682.06;5007834;28;802;-84
2022/08/16 06:40:32;;;;;;;;;;;;;;;19.71;83.38;99687.91;5007902;28;1960;-84
2022/08/16 06:42:57;;;;;;;;;;;;;;;19.69;83.58;99688.28;5009552;28;1212;-84
2022/08/16 06:45:22;;;;;;;;;;;;;;;19.70;83.33;99692.66;5009228;28;1023;-85
2022/08/16 06:47:47;;;;;;;;;;;;;;;19.70;83.40;99689.09;5009883;28;853;-84
2022/08/16 06:50:13;;;;;;;;;;;;;;;19.70;84.36;99700.19;5008528;28;1885;-84
2022/08/16 06:52:38;;;;;;;;;;;;;;;19.69;83.40;99704.13;5024813;28;1267;-84
2022/08/16 06:55:04;;;;;;;;;;;;;;;19.68;83.63;99700.53;5008239;28;1886;-85
2022/08/16 06:57:29;;;;;;;;;;;;;;;19.65;84.80;99707.59;5023162;28;1462;-84
2022/08/16 06:59:55;;;;;;;;;;;;;;;19.62;85.64;99713.09;5025703;28;1340;-85
2022/08/16 07:02:20;;;;;;;;;;;;;;;19.59;84.89;99713.81;5007968;28;1949;-84
2022/08/16 07:04:45;;;;;;;;;;;;;;;19.58;84.48;99723.28;5023979;28;1320;-85
2022/08/16 07:07:10;;;;;;;;;;;;;;;19.59;84.18;99722.13;5024659;28;1008;-85
2022/08/16 07:09:35;;;;;;;;;;;;;;;19.70;84.73;99725.97;5004171;28;1075;-85
2022/08/16 07:12:01;;;;;;;;;;;;;;;19.71;83.73;99729.56;5003256;28;1968;-85
2022/08/16 07:14:26;;;;;;;;;;;;;;;19.78;84.39;99729.72;5002760;28;790;-85
2022/08/16 07:16:51;;;;;;;;;;;;;;;19.81;84.49;99727.06;4999274;28;1894;-85
2022/08/16 07:19:17;;;;;;;;;;;;;;;19.84;84.22;99729.09;4998931;28;853;-85
2022/08/16 07:21:42;;;;;;;;;;;;;;;19.84;83.51;99729.09;4996604;28;1907;-85
2022/08/16 07:24:07;;;;;;;;;;;;;;;19.84;83.83;99726.31;4997621;28;1173;-85
2022/08/16 07:26:33;;;;;;;;;;;;;;;19.86;83.45;99723.97;4997732;28;1203;-84
2022/08/16 07:28:59;;;;;;;;;;;;;;;19.89;84.13;99722.47;5013730;28;972;-85
2022/08/16 07:31:24;;;;;;;;;;;;;;;19.94;84.51;99722.16;4997748;28;1881;-85
2022/08/16 07:33:49;;;;;;;;;;;;;;;19.93;83.54;99726.91;5024339;28;1373;-83
2022/08/16 07:36:15;;;;;;;;;;;;;;;19.97;83.45;99716.72;5023896;28;1875;-84
2022/08/16 07:38:40;;;;;;;;;;;;;;;20.02;82.76;99718.38;5023906;28;1181;-84
2022/08/16 07:41:06;;;;;;;;;;;;;;;20.09;83.47;99715.75;5024606;28;1409;-84
2022/08/16 07:43:31;;;;;;;;;;;;;;;20.15;82.67;99736.56;5009095;28;1365;-84
2022/08/16 07:45:58;;;;;;;;;;;;;;;20.23;82.89;99731.97;5024966;28;1161;-84
2022/08/16 07:48:23;;;;;;;;;;;;;;;20.30;82.63;99723.78;5024831;28;1351;-84
2022/08/16 07:50:48;;;;;;;;;;;;;;;20.31;82.17;99719.84;5021466;28;1479;-84
2022/08/16 07:53:13;;;;;;;;;;;;;;;20.31;82.11;99725.38;5008463;28;1466;-84
2022/08/16 07:55:39;;;;;;;;;;;;;;;20.33;82.57;99726.63;5005365;28;1954;-84
2022/08/16 07:58:04;;;;;;;;;;;;;;;20.37;82.29;99719.19;5000793;28;861;-84
2022/08/16 08:00:30;;;;;;;;;;;;;;;20.37;82.12;99724.75;5000645;28;1410;-85
2022/08/16 08:02:55;;;;;;;;;;;;;;;20.36;82.01;99727.91;5015475;28;1431;-85
2022/08/16 08:05:22;;;;;;;;;;;;;;;20.36;82.07;99731.47;5001335;28;723;-85
2022/08/16 08:07:47;;;;;;;;;;;;;;;20.34;83.16;99733.81;5015897;28;1391;-84
2022/08/16 08:10:12;;;;;;;;;;;;;;;20.38;82.91;99737.50;5018231;28;1483;-83
2022/08/16 08:12:37;;;;;;;;;;;;;;;20.38;82.04;99733.91;5009050;28;1284;-84
2022/08/16 08:15:04;;;;;;;;;;;;;;;20.44;82.80;99742.75;5022783;28;1928;-85
2022/08/16 08:17:30;;;;;;;;;;;;;;;20.49;83.00;99739.69;5008939;28;1400;-84
2022/08/16 08:19:55;;;;;;;;;;;;;;;20.53;83.12;99735.81;5008319;28;1205;-84
2022/08/16 08:22:21;;;;;;;;;;;;;;;20.56;82.82;99732.31;5009519;28;1236;-84
2022/08/16 08:24:46;;;;;;;;;;;;;;;20.58;82.95;99729.97;5010030;28;897;-83
2022/08/16 08:27:11;;;;;;;;;;;;;;;20.60;83.25;99735.13;5008864;28;1422;-84
2022/08/16 08:29:36;;;;;;;;;;;;;;;20.62;82.77;99736.41;5024422;28;1202;-84
2022/08/16 08:32:02;;;;;;;;;;;;;;;20.66;82.79;99734.50;5009749;28;1540;-84
2022/08/16 08:34:28;;;;;;;;;;;;;;;20.68;82.50;99737.69;5024843;28;1186;-84
2022/08/16 08:36:53;;;;;;;;;;;;;;;20.72;83.28;99746.94;5003723;28;2102;-84
2022/08/16 08:39:18;;;;;;;;;;;;;;;20.78;82.12;99745.47;5003772;28;1166;-85
2022/08/16 08:41:44;;;;;;;;;;;;;;;20.80;81.86;99741.50;4997742;28;1243;-85
2022/08/16 08:44:10;;;;;;;;;;;;;;;20.81;82.10;99741.16;5012667;28;1633;-85
2022/08/16 08:46:35;;;;;;;;;;;;;;;20.90;82.50;99736.16;4997200;28;1629;-85
2022/08/16 08:49:00;;;;;;;;;;;;;;;20.97;82.91;99736.28;4997018;28;1094;-85
2022/08/16 08:51:25;;;;;;;;;;;;;;;21.01;82.81;99737.16;5081497;23;1797;-86
2022/08/16 08:53:51;;;;;;;;;;;;;;;21.05;82.29;99735.25;5073207;28;785;-86
2022/08/16 08:56:16;;;;;;;;;;;;;;;21.06;81.91;99733.28;5047341;28;2002;-87
2022/08/16 08:58:41;;;;;;;;;;;;;;;21.09;82.97;99738.13;5055648;28;1282;-86
2022/08/16 09:01:07;;;;;;;;;;;;;;;21.14;82.57;99746.94;5055718;28;1341;-86
2022/08/16 09:03:32;;;;;;;;;;;;;;;21.17;83.04;99739.03;5056824;28;1192;-86
2022/08/16 09:05:58;;;;;;;;;;;;;;;21.16;83.17;99743.81;5055511;28;1561;-86
2022/08/16 09:08:25;;;;;;;;;;;;;;;21.20;81.87;99739.13;5036569;28;1415;-87
2022/08/16 09:10:51;;;;;;;;;;;;;;;21.19;80.82;99736.69;5035661;28;1279;-87
2022/08/16 09:13:16;;;;;;;;;;;;;;;21.28;81.67;99740.06;5051909;28;1283;-86
2022/08/16 09:15:43;;;;;;;;;;;;;;;21.33;81.26;99742.53;5051953;28;1894;-87
2022/08/16 09:18:08;;;;;;;;;;;;;;;21.34;80.58;99738.59;5052443;28;1420;-87
2022/08/16 09:20:34;;;;;;;;;;;;;;;21.36;80.61;99737.03;5052943;28;1215;-86
2022/08/16 09:23:02;;;;;;;;;;;;;;;21.42;81.20;99734.75;5035639;28;1352;-86
2022/08/16 09:25:27;;;;;;;;;;;;;;;21.47;79.99;99728.84;5053281;28;922;-87
2022/08/16 09:27:52;;;;;;;;;;;;;;;21.47;80.47;99731.66;5050663;28;1479;-87
2022/08/16 09:30:17;;;;;;;;;;;;;;;21.52;80.35;99737.69;5035106;28;1259;-87
2022/08/16 09:32:43;;;;;;;;;;;;;;;21.59;80.42;99730.66;5035272;28;1606;-87
2022/08/16 09:35:08;;;;;;;;;;;;;;;21.62;80.70;99735.47;5052807;28;1897;-87
2022/08/16 09:37:33;;;;;;;;;;;;;;;21.67;80.57;99735.97;5034637;28;1460;-87
2022/08/16 09:39:59;;;;;;;;;;;;;;;21.71;80.17;99733.22;5035214;28;1240;-87
2022/08/16 09:42:25;;;;;;;;;;;;;;;21.80;80.05;99737.34;5034901;28;1385;-87
2022/08/16 09:44:50;;;;;;;;;;;;;;;21.84;78.25;99741.03;5035573;28;1291;-86
2022/08/16 09:47:15;;;;;;;;;;;;;;;21.85;77.85;99741.81;5052109;28;1397;-87
2022/08/16 09:49:41;;;;;;;;;;;;;;;21.89;77.05;99737.09;5052425;28;1204;-86
2022/08/16 09:52:07;;;;;;;;;;;;;;;21.97;76.46;99738.84;5036767;28;1335;-85
2022/08/16 09:54:32;;;;;;;;;;;;;;;22.00;76.37;99743.66;5053548;28;1235;-87
2022/08/16 09:56:57;;;;;;;;;;;;;;;22.03;74.84;99737.31;5054081;28;1910;-86
2022/08/16 09:59:24;;;;;;;;;;;;;;;22.05;77.22;99734.97;5036849;28;1315;-86
2022/08/16 10:01:50;;;;;;;;;;;;;;;22.10;75.99;99736.66;5036052;28;1390;-86
2022/08/16 10:04:16;;;;;;;;;;;;;;;22.15;75.70;99730.75;5036239;28;1268;-86
2022/08/16 10:06:42;;;;;;;;;;;;;;;22.19;75.33;99729.63;5058050;28;1412;-86
2022/08/16 10:09:09;;;;;;;;;;;;;;;22.24;75.69;99732.06;5039172;28;1594;-86
2022/08/16 10:14:18;;;;;;;;;;;;;;;22.36;74.14;99724.66;5058854;28;695;-86
2022/08/16 10:16:44;;;;;;;;;;;;;;;22.33;74.62;99717.03;5038087;28;1871;-87
2022/08/16 10:19:09;;;;;;;;;;;;;;;22.34;75.76;99724.22;5056530;28;1078;-86
2022/08/16 10:21:34;;;;;;;;;;;;;;;22.39;75.74;99723.88;5038433;28;1211;-86
2022/08/16 10:24:00;;;;;;;;;;;;;;;22.49;75.19;99732.41;5038087;28;863;-86
2022/08/16 10:26:25;;;;;;;;;;;;;;;22.59;75.68;99725.34;5056224;28;1602;-86
2022/08/16 10:28:50;;;;;;;;;;;;;;;22.73;73.41;99714.34;5039376;28;1216;-87
2022/08/16 10:31:16;;;;;;;;;;;;;;;22.72;72.83;99728.69;5039239;28;1223;-86
2022/08/16 10:33:41;;;;;;;;;;;;;;;22.69;72.99;99721.91;5056712;28;860;-87
2022/08/16 10:36:07;;;;;;;;;;;;;;;22.65;70.43;99726.63;5037610;28;1898;-86
2022/08/16 10:38:33;;;;;;;;;;;;;;;22.58;73.53;99715.38;5037836;28;1431;-86
2022/08/16 10:40:59;;;;;;;;;;;;;;;22.52;72.26;99714.91;5038241;28;1290;-86
2022/08/16 10:43:24;;;;;;;;;;;;;;;22.47;72.18;99720.00;5038177;28;1272;-87
2022/08/16 10:45:50;;;;;;;;;;;;;;;22.53;70.51;99724.91;5056207;28;1464;-86
2022/08/16 10:48:16;;;;;;;;;;;;;;;22.45;70.29;99731.56;5056908;28;908;-86
2022/08/16 10:50:41;;;;;;;;;;;;;;;22.44;69.58;99734.72;5038327;28;1303;-86
2022/08/16 10:53:06;;;;;;;;;;;;;;;22.59;70.28;99730.94;5038063;28;1051;-86
2022/08/16 10:55:35;;;;;;;;;;;;;;;22.97;68.11;99730.59;5038234;28;1949;-87
2022/08/16 10:58:01;;;;;;;;;;;;;;;22.91;68.88;99725.75;5036858;28;1416;-86
2022/08/16 11:00:26;;;;;;;;;;;;;;;22.92;68.33;99721.78;5056414;28;1209;-86
2022/08/16 11:02:51;;;;;;;;;;;;;;;22.90;69.23;99727.72;5038380;28;1209;-87
2022/08/16 11:05:17;;;;;;;;;;;;;;;22.89;70.70;99726.13;5038347;28;1035;-86
2022/08/16 11:07:44;;;;;;;;;;;;;;;22.96;68.59;99726.22;5038609;28;1400;-86
2022/08/16 11:10:10;;;;;;;;;;;;;;;23.00;67.24;99724.25;5037687;28;1320;-86
2022/08/16 11:12:35;;;;;;;;;;;;;;;23.07;66.94;99723.53;5038064;28;1264;-87
2022/08/16 11:15:00;;;;;;;;;;;;;;;23.21;65.78;99726.47;5037709;28;1438;-86
2022/08/16 11:17:26;;;;;;;;;;;;;;;23.21;67.13;99725.66;5036099;28;1890;-87
2022/08/16 11:19:51;;;;;;;;;;;;;;;23.20;68.64;99732.44;5054258;28;1303;-86
2022/08/16 11:22:18;;;;;;;;;;;;;;;23.38;68.88;99727.81;5037824;28;1203;-86
2022/08/16 11:24:44;;;;;;;;;;;;;;;23.47;69.92;99730.31;5037878;28;1323;-86
2022/08/16 11:27:11;;;;;;;;;;;;;;;23.37;69.85;99731.81;5036767;28;1408;-86
2022/08/16 11:29:36;;;;;;;;;;;;;;;23.42;67.30;99727.84;5037205;28;1298;-86
2022/08/16 11:32:04;;;;;;;;;;;;;;;23.45;67.03;99741.84;5037503;28;1548;-87
2022/08/16 11:34:29;;;;;;;;;;;;;;;23.39;66.26;99743.41;5037148;28;1370;-86
2022/08/16 11:36:54;;;;;;;;;;;;;;;23.40;68.70;99740.19;5036611;28;1961;-86
2022/08/16 11:39:19;;;;;;;;;;;;;;;23.47;69.84;99745.06;5036788;28;1398;-87
2022/08/16 11:41:45;;;;;;;;;;;;;;;23.49;69.77;99745.50;5037971;28;1186;-87
2022/08/16 11:44:10;;;;;;;;;;;;;;;23.46;68.68;99749.03;5054926;28;1087;-87
2022/08/16 11:46:36;;;;;;;;;;;;;;;23.59;65.91;99739.19;5037236;28;1314;-87
2022/08/16 11:49:01;;;;;;;;;;;;;;;23.59;67.04;99739.19;5036946;28;1435;-86
2022/08/16 11:51:27;;;;;;;;;;;;;;;23.60;68.92;99746.41;5037005;28;1414;-86
2022/08/16 11:53:52;;;;;;;;;;;;;;;23.68;67.64;99738.88;5054914;28;924;-86
2022/08/16 11:56:18;;;;;;;;;;;;;;;23.82;65.13;99736.19;5037958;28;1910;-86
2022/08/16 11:58:43;;;;;;;;;;;;;;;23.80;64.48;99738.59;5037728;28;1439;-86
2022/08/16 12:01:08;;;;;;;;;;;;;;;23.80;64.85;99734.97;5036998;28;1216;-86
2022/08/16 12:03:34;;;;;;;;;;;;;;;23.91;64.15;99733.03;5037850;28;1275;-86
2022/08/16 12:06:01;;;;;;;;;;;;;;;24.03;62.39;99727.16;5036998;28;1377;-87
2022/08/16 12:08:26;;;;;;;;;;;;;;;24.08;64.73;99726.78;5036899;28;1442;-86
2022/08/16 12:10:52;;;;;;;;;;;;;;;24.11;64.53;99721.22;5035924;28;1502;-86
2022/08/16 12:13:17;;;;;;;;;;;;;;;24.18;63.93;99719.66;5036752;28;1251;-87
2022/08/16 12:15:42;;;;;;;;;;;;;;;24.23;63.68;99716.53;5053223;28;2000;-87
2022/08/16 12:18:09;;;;;;;;;;;;;;;24.34;62.85;99718.16;5036635;28;1181;-86
2022/08/16 12:20:36;;;;;;;;;;;;;;;24.28;63.68;99721.72;5036915;28;1225;-86
2022/08/16 12:23:02;;;;;;;;;;;;;;;24.24;62.97;99724.53;5036719;28;1341;-86
2022/08/16 12:25:28;;;;;;;;;;;;;;;24.22;63.43;99710.13;5054063;28;1412;-87
2022/08/16 12:27:54;;;;;;;;;;;;;;;24.30;62.63;99725.75;5034964;28;1392;-86
2022/08/16 12:30:24;;;;;;;;;;;;;;;24.28;62.83;99714.16;5054727;28;1397;-87
2022/08/16 12:32:49;;;;;;;;;;;;;;;24.08;63.71;99710.00;5036770;28;1401;-87
2022/08/16 12:35:16;;;;;;;;;;;;;;;24.14;63.19;99719.63;5036908;28;1898;-86
2022/08/16 12:37:42;;;;;;;;;;;;;;;24.12;62.16;99714.44;5035445;28;1405;-86
2022/08/16 12:40:08;;;;;;;;;;;;;;;24.36;60.58;99714.97;5053974;28;1256;-86
2022/08/16 12:42:33;;;;;;;;;;;;;;;24.26;62.42;99712.94;5053905;28;1164;-87
2022/08/16 12:44:59;;;;;;;;;;;;;;;24.17;63.22;99718.84;5033627;28;1432;-86
2022/08/16 12:50:09;;;;;;;;;;;;;;;24.09;64.64;99722.78;5053860;28;1248;-86
2022/08/16 12:52:35;;;;;;;;;;;;;;;24.18;61.03;99719.66;5035707;28;1362;-86
2022/08/16 12:55:00;;;;;;;;;;;;;;;24.27;63.61;99723.72;5035155;28;1467;-87